KWST/WST METAR and TAF weather

Enter ICAO airport designator
Station Type Date Time Source
KWST METAR 2019/08/20 09:53 UTC NOAA

KWST 200953Z AUTO 00000KT 10SM CLR 21/20 A3007 RMK AO2 SLP181 T02060200


Station Type Date Time Source
KWST Decoded METAR 2019/08/20 09:53 UTC NOAA

WESTERLY STATE AIRPORT, RI, United States (KWST) 41-21N 071-48W 21M
Aug 20, 2019 - 05:53 AM EDT / 2019.08.20 0953 UTC
Wind: Calm:0
Visibility: 10 mile(s):0
Sky conditions: clear
Temperature: 69.1 F (20.6 C)
Dew Point: 68.0 F (20.0 C)
Relative Humidity: 96%
Pressure (altimeter): 30.07 in. Hg (1018 hPa)
ob: KWST 200953Z AUTO 00000KT 10SM CLR 21/20 A3007 RMK AO2 SLP181 T02060200
cycle: 10

Station Type Date Time Source
KWST TAF UTC NOAA

Error!

Example: see airport list